Svetlograd, Russia
Current Conditions -  °F | °C
As of 6:00 PM on Thursday 30 Oct 2014 (Local Time) from URMT Reporting Station
Overcast Overcast  
Wind Chill: 41°   Ceiling: 300
Heat Index: 46°   Visibility: 6mi
Dew Point: 45°   Wind: 11mph
Humidity: 93%   Direction: 120°ESE
Pressure: 30.09"   Gusts: 18mph
Location:  45.34°N, 42.85°E
Report Text: URMT 301500Z 12005G08MPS 9999 OVC003 08/07 Q1019 TEMPO 0800 FGOVC002 RMK QBB110 QFE724 SC070
Loading
Personal Weather Stations






























Interactive Weather Map
Tropical Storm Tracking
New forecast layout! Learn more

10-Day Weather Forecast

Advertisements
Track Severe Weather on mobile